Tinsdal — V2AJ2 — position and weather

sailwx.info

Track history (hours):
 
Tides and Currents Weather Stations Pressure Air Temp Water Temp Dewpoint Dewpoint Depression Visibility Wind Speed Wind Dir Waves Ship Positions

Tinsdal

Last reported at 2016-Apr-29 22:33 UTC. Time now 2016-May-01 09:51 UTC.
Position N 37°23' E 025°54'.

Length 90 m; draft 3.8 m.

Type: Ship. MMSI: 305573000.

Date/timePositionNaut miles runAvg speedWind from/ knotsBaromVisibWave heightAir tempDewpointWater temp
2016-Apr-29 22:33N 37°23' E 025°54'1010.1
2016-Apr-29 21:33N 37°33' E 025°49'229 7.5
2016-Apr-28 15:16N 40°26' E 029°00'4 0.3
2016-Apr-28 02:17N 40°25' E 029°05'0 0.0
2016-Apr-27 16:29N 40°25' E 029°05'0 0.0
2016-Apr-27 15:29N 40°25' E 029°05'0 0.0
2016-Apr-27 14:29N 40°25' E 029°05'0 0.0
2016-Apr-27 12:05N 40°25' E 029°05'0 0.0
2016-Apr-27 04:23N 40°25' E 029°05'0 0.0
2016-Apr-27 03:29N 40°25' E 029°05'0 0.0
2016-Apr-26 21:23N 40°25' E 029°05'0 0.0
2016-Apr-26 06:29N 40°25' E 029°05'  
2016-Apr-23 02:31N 40°27' E 029°05'20 6.3
2016-Apr-22 23:16N 40°33' E 028°40'  
2016-Apr-20 02:32N 37°01' E 023°54'10 9.7
2016-Apr-20 01:33N 36°53' E 023°47'10 9.7
2016-Apr-20 00:33N 36°44' E 023°43'  
Track history (hours):
 
Tides and Currents Weather Stations Pressure Air Temp Water Temp Dewpoint Dewpoint Depression Visibility Wind Speed Wind Dir Waves Ship Positions

Tinsdal

Last reported at 2016-Apr-29 22:33 UTC. Time now 2016-May-01 09:51 UTC.
Position N 37°23' E 025°54'.

Length 90 m; draft 3.8 m.

Type: Ship. MMSI: 305573000.

Date/timePositionNaut miles runAvg speedWind from/ knotsBaromVisibWave heightAir tempDewpointWater temp
2016-Apr-29 22:33N 37°23' E 025°54'1010.1
2016-Apr-29 21:33N 37°33' E 025°49'229 7.5
2016-Apr-28 15:16N 40°26' E 029°00'4 0.3
2016-Apr-28 02:17N 40°25' E 029°05'0 0.0
2016-Apr-27 16:29N 40°25' E 029°05'0 0.0
2016-Apr-27 15:29N 40°25' E 029°05'0 0.0
2016-Apr-27 14:29N 40°25' E 029°05'0 0.0
2016-Apr-27 12:05N 40°25' E 029°05'0 0.0
2016-Apr-27 04:23N 40°25' E 029°05'0 0.0
2016-Apr-27 03:29N 40°25' E 029°05'0 0.0
2016-Apr-26 21:23N 40°25' E 029°05'0 0.0
2016-Apr-26 06:29N 40°25' E 029°05'  
2016-Apr-23 02:31N 40°27' E 029°05'20 6.3
2016-Apr-22 23:16N 40°33' E 028°40'  
2016-Apr-20 02:32N 37°01' E 023°54'10 9.7
2016-Apr-20 01:33N 36°53' E 023°47'10 9.7
2016-Apr-20 00:33N 36°44' E 023°43'  

Dump ship's entire track history